createdAt,value
2023-04-18T00:00:10.762Z,102146.25
2023-04-18T00:02:47.749Z,102139.19
2023-04-18T00:05:18.388Z,102138.44
2023-04-18T00:07:48.833Z,102141.72
2023-04-18T00:10:19.510Z,102139.81
2023-04-18T00:12:50.041Z,102132.84
2023-04-18T00:15:20.067Z,102140.75
2023-04-18T00:17:56.643Z,102140.34
2023-04-18T00:20:28.862Z,102132.22
2023-04-18T00:23:00.908Z,102135.72
2023-04-18T00:25:31.163Z,102134.31
2023-04-18T00:28:01.503Z,102133.34
2023-04-18T00:30:31.635Z,102141.09
2023-04-18T00:33:04.804Z,102144.78
2023-04-18T00:35:34.965Z,102144.25
2023-04-18T00:38:05.028Z,102147.31
2023-04-18T00:40:35.226Z,102146.03
2023-04-18T00:43:05.537Z,102148.88
2023-04-18T00:45:37.207Z,102142.13
2023-04-18T00:48:10.336Z,102149.97
2023-04-18T00:50:41.793Z,102149.84
2023-04-18T00:53:12.863Z,102147.00
2023-04-18T00:55:44.294Z,102148.34
2023-04-18T00:58:15.035Z,102142.31
2023-04-18T01:00:45.998Z,102138.00
2023-04-18T01:03:19.288Z,102143.28
2023-04-18T01:05:49.728Z,102147.59
2023-04-18T01:08:21.684Z,102146.03
2023-04-18T01:10:52.430Z,102142.97
2023-04-18T01:13:23.587Z,102138.00
2023-04-18T01:15:55.886Z,102147.84
2023-04-18T01:18:31.664Z,102146.03
2023-04-18T01:21:02.794Z,102146.88
2023-04-18T01:23:33.491Z,102144.25
2023-04-18T01:26:06.304Z,102137.69
2023-04-18T01:28:39.773Z,102148.25
2023-04-18T01:31:11.250Z,102150.16
2023-04-18T01:33:41.575Z,102147.22
2023-04-18T01:36:11.665Z,102140.56
2023-04-18T01:38:41.747Z,102140.31
2023-04-18T01:41:14.674Z,102143.72
2023-04-18T01:43:46.254Z,102138.25
2023-04-18T01:46:17.014Z,102135.59
2023-04-18T01:48:47.345Z,102142.13
2023-04-18T01:51:17.514Z,102133.78
2023-04-18T01:53:47.740Z,102133.34
2023-04-18T01:56:21.125Z,102138.84
2023-04-18T01:58:51.319Z,102134.94
2023-04-18T02:01:21.715Z,102136.41
2023-04-18T02:03:51.986Z,102136.75
2023-04-18T02:06:22.600Z,102127.56
2023-04-18T02:08:52.669Z,102129.75
2023-04-18T02:11:25.381Z,102129.03
2023-04-18T02:13:55.831Z,102129.03
2023-04-18T02:16:26.030Z,102126.84
2023-04-18T02:18:56.735Z,102130.63
2023-04-18T02:21:27.170Z,102127.56
2023-04-18T02:23:57.217Z,102130.19
2023-04-18T02:26:29.922Z,102135.16
2023-04-18T02:29:01.569Z,102145.06
2023-04-18T02:31:33.227Z,102140.00
2023-04-18T02:34:03.318Z,102136.19
2023-04-18T02:36:33.441Z,102139.78
2023-04-18T02:39:03.555Z,102150.78
2023-04-18T02:41:37.852Z,102144.94
2023-04-18T02:44:08.346Z,102150.34
2023-04-18T02:46:41.545Z,102148.13
2023-04-18T02:49:15.703Z,102151.72
2023-04-18T02:51:47.933Z,102149.19
2023-04-18T02:54:19.547Z,102145.50
2023-04-18T02:57:07.300Z,102147.19
2023-04-18T02:59:55.890Z,102141.66
2023-04-18T03:02:44.883Z,102141.16
2023-04-18T03:05:28.259Z,102150.03
2023-04-18T03:08:02.134Z,102146.56
2023-04-18T03:10:32.962Z,102147.50
2023-04-18T03:13:05.854Z,102155.88
2023-04-18T03:15:36.605Z,102151.31
2023-04-18T03:18:07.333Z,102152.38
2023-04-18T03:20:41.066Z,102152.16
2023-04-18T03:23:11.663Z,102152.16
2023-04-18T03:25:42.350Z,102146.53
2023-04-18T03:28:15.207Z,102154.56
2023-04-18T03:30:45.644Z,102150.97
2023-04-18T03:33:17.229Z,102151.41
2023-04-18T03:35:49.009Z,102150.16
2023-04-18T03:38:19.234Z,102154.69
2023-04-18T03:40:49.312Z,102151.22
2023-04-18T03:43:29.590Z,102155.03
2023-04-18T03:45:59.766Z,102158.63
2023-04-18T03:48:31.118Z,102152.06
2023-04-18T03:51:05.148Z,102155.97
2023-04-18T03:53:35.916Z,102158.47
2023-04-18T03:56:06.335Z,102160.69
2023-04-18T03:58:52.254Z,102157.94
2023-04-18T04:01:24.519Z,102156.03
2023-04-18T04:03:56.322Z,102170.34
2023-04-18T04:06:26.982Z,102163.25
2023-04-18T04:08:57.896Z,102172.00
2023-04-18T04:11:29.804Z,102173.50
2023-04-18T04:14:02.646Z,102162.31
2023-04-18T04:16:40.700Z,102160.19
2023-04-18T04:19:12.313Z,102169.88
2023-04-18T04:21:49.541Z,102166.50
2023-04-18T04:24:20.621Z,102174.91
2023-04-18T04:26:51.744Z,102174.06
2023-04-18T04:29:29.187Z,102178.09
2023-04-18T04:32:01.755Z,102181.91
2023-04-18T04:34:37.035Z,102178.75
2023-04-18T04:37:09.812Z,102179.38
2023-04-18T04:39:49.537Z,102176.84
2023-04-18T04:42:34.788Z,102183.16
2023-04-18T04:45:15.362Z,102179.16
2023-04-18T04:47:45.618Z,102177.66
2023-04-18T04:50:17.693Z,102186.31
2023-04-18T04:52:47.919Z,102187.69
2023-04-18T04:55:19.187Z,102195.97
2023-04-18T04:57:49.706Z,102192.47
2023-04-18T05:00:36.607Z,102185.66
2023-04-18T05:03:07.392Z,102187.13
2023-04-18T05:05:37.827Z,102187.19
2023-04-18T05:08:08.564Z,102189.09
2023-04-18T05:10:39.337Z,102187.00
2023-04-18T05:13:09.453Z,102191.13
2023-04-18T05:15:42.622Z,102195.75
2023-04-18T05:18:14.329Z,102198.31
2023-04-18T05:20:44.419Z,102202.31
2023-04-18T05:23:14.515Z,102204.53
2023-04-18T05:25:44.774Z,102202.00
2023-04-18T05:28:14.837Z,102198.31
2023-04-18T05:30:47.983Z,102195.16
2023-04-18T05:33:18.120Z,102201.09
2023-04-18T05:35:48.295Z,102203.41
2023-04-18T05:38:18.486Z,102202.88
2023-04-18T05:40:51.164Z,102199.91
2023-04-18T05:43:22.089Z,102202.00
2023-04-18T05:45:57.652Z,102202.63
2023-04-18T05:48:28.170Z,102205.47
2023-04-18T05:51:13.100Z,102197.94
2023-04-18T05:53:43.283Z,102199.94
2023-04-18T05:56:13.658Z,102196.31
2023-04-18T05:58:45.255Z,102202.34
2023-04-18T06:01:18.813Z,102204.22
2023-04-18T06:03:49.205Z,102206.50
2023-04-18T06:06:19.618Z,102206.16
2023-04-18T06:08:49.870Z,102211.66
2023-04-18T06:11:22.763Z,102213.00
2023-04-18T06:13:55.853Z,102210.50
2023-04-18T06:16:28.992Z,102206.69
2023-04-18T06:19:01.212Z,102210.19
2023-04-18T06:21:32.249Z,102209.53
2023-04-18T06:24:02.476Z,102208.69
2023-04-18T06:26:33.376Z,102209.84
2023-04-18T06:29:03.522Z,102212.63
2023-04-18T06:31:36.262Z,102223.16
2023-04-18T06:34:06.401Z,102220.41
2023-04-18T06:36:36.912Z,102217.44
2023-04-18T06:39:07.091Z,102219.38
2023-04-18T06:41:37.481Z,102218.66
2023-04-18T06:44:07.720Z,102225.69
2023-04-18T06:46:40.673Z,102217.03
2023-04-18T06:49:10.932Z,102233.66
2023-04-18T06:51:41.109Z,102229.31
2023-04-18T06:54:11.732Z,102228.81
2023-04-18T06:56:44.269Z,102230.59
2023-04-18T06:59:14.781Z,102231.41
2023-04-18T07:01:47.676Z,102229.94
2023-04-18T07:04:18.203Z,102224.34
2023-04-18T07:06:48.867Z,102226.06
2023-04-18T07:09:20.445Z,102223.66
2023-04-18T07:11:51.431Z,102227.34
2023-04-18T07:14:36.508Z,102227.34
2023-04-18T07:17:09.288Z,102216.91
2023-04-18T07:19:39.451Z,102226.34
2023-04-18T07:22:09.637Z,102233.81
2023-04-18T07:24:40.151Z,102230.06
2023-04-18T07:27:10.423Z,102232.31
2023-04-18T07:29:40.597Z,102234.25
2023-04-18T07:32:13.594Z,102228.78
2023-04-18T07:34:43.919Z,102231.50
2023-04-18T07:37:15.275Z,102228.03
2023-04-18T07:39:45.543Z,102228.53
2023-04-18T07:42:15.629Z,102236.97
2023-04-18T07:44:47.313Z,102231.66
2023-04-18T07:47:22.279Z,102230.84
2023-04-18T07:49:52.682Z,102240.03
2023-04-18T07:52:22.796Z,102235.91
2023-04-18T07:54:53.271Z,102236.00
2023-04-18T07:57:23.478Z,102235.69
2023-04-18T07:59:54.580Z,102242.19
2023-04-18T08:02:27.462Z,102243.13
2023-04-18T08:04:58.014Z,102241.13
2023-04-18T08:07:28.324Z,102248.00
2023-04-18T08:09:58.390Z,102242.78
2023-04-18T08:12:28.418Z,102243.31
2023-04-18T08:14:58.522Z,102245.03
2023-04-18T08:17:33.693Z,102247.81
2023-04-18T08:20:07.404Z,102246.25
2023-04-18T08:22:46.814Z,102248.06
2023-04-18T08:25:27.306Z,102253.66
2023-04-18T08:27:58.000Z,102248.28
2023-04-18T08:30:28.228Z,102248.59
2023-04-18T08:33:03.086Z,102253.19
2023-04-18T08:35:35.566Z,102250.81
2023-04-18T08:38:07.949Z,102247.03
2023-04-18T08:40:46.109Z,102247.22
2023-04-18T08:43:17.388Z,102252.03
2023-04-18T08:45:48.761Z,102250.66
2023-04-18T08:48:23.867Z,102242.06
2023-04-18T08:51:00.320Z,102243.53
2023-04-18T08:53:36.978Z,102239.75
2023-04-18T08:56:10.565Z,102248.78
2023-04-18T08:58:45.364Z,102248.31
2023-04-18T09:01:15.606Z,102247.13
2023-04-18T09:03:48.336Z,102248.25
2023-04-18T09:06:20.457Z,102250.47
2023-04-18T09:09:00.426Z,102249.47
2023-04-18T09:11:34.657Z,102255.81
2023-04-18T09:14:04.789Z,102250.25
2023-04-18T09:16:48.223Z,102249.41
2023-04-18T09:19:21.905Z,102254.75
2023-04-18T09:22:01.468Z,102247.88
2023-04-18T09:24:34.851Z,102250.69
2023-04-18T09:27:05.146Z,102242.53
2023-04-18T09:29:49.712Z,102249.44
2023-04-18T09:32:25.653Z,102240.91
2023-04-18T09:35:03.969Z,102246.09
2023-04-18T09:37:34.801Z,102242.44
2023-04-18T09:40:19.474Z,102241.91
2023-04-18T09:42:50.921Z,102250.16
2023-04-18T09:45:22.301Z,102250.84
2023-04-18T09:47:52.620Z,102245.47
2023-04-18T09:50:25.431Z,102247.25
2023-04-18T09:52:58.398Z,102251.06
2023-04-18T09:55:29.565Z,102245.78
2023-04-18T09:58:02.345Z,102238.72
2023-04-18T10:00:33.828Z,102241.19
2023-04-18T10:03:10.112Z,102239.56
2023-04-18T10:05:44.187Z,102239.59
2023-04-18T10:08:16.698Z,102237.63
2023-04-18T10:10:46.799Z,102244.91
2023-04-18T10:13:17.349Z,102249.19
2023-04-18T10:15:51.404Z,102239.03
2023-04-18T10:18:40.889Z,102238.56
2023-04-18T10:21:13.602Z,102232.34
2023-04-18T10:23:43.994Z,102239.63
2023-04-18T10:26:14.314Z,102241.66
2023-04-18T10:28:57.031Z,102240.56
2023-04-18T10:31:28.937Z,102237.06
2023-04-18T10:34:05.560Z,102240.19
2023-04-18T10:36:38.910Z,102236.97
2023-04-18T10:39:25.708Z,102240.47
2023-04-18T10:41:55.898Z,102239.50
2023-04-18T10:44:27.272Z,102241.63
2023-04-18T10:47:33.034Z,102235.66
2023-04-18T10:50:06.799Z,102225.81
2023-04-18T10:52:39.827Z,102225.94
2023-04-18T10:55:16.651Z,102229.44
2023-04-18T10:57:48.078Z,102230.47
2023-04-18T11:00:21.928Z,102226.94
2023-04-18T11:03:00.369Z,102233.63
2023-04-18T11:05:31.528Z,102232.16
2023-04-18T11:08:04.412Z,102229.19
2023-04-18T11:10:34.764Z,102231.25
2023-04-18T11:13:08.693Z,102224.56
2023-04-18T11:15:40.026Z,102236.00
2023-04-18T11:18:12.240Z,102229.97
2023-04-18T11:20:59.070Z,102233.66
2023-04-18T11:23:31.756Z,102222.91
2023-04-18T11:26:03.480Z,102219.38
2023-04-18T11:28:33.752Z,102226.22
2023-04-18T11:31:06.517Z,102222.03
2023-04-18T11:33:37.199Z,102212.75
2023-04-18T11:36:08.425Z,102221.41
2023-04-18T11:38:43.757Z,102211.75
2023-04-18T11:41:17.293Z,102215.69
2023-04-18T11:43:48.603Z,102211.22
2023-04-18T11:46:18.733Z,102213.31
2023-04-18T11:48:50.654Z,102207.97
2023-04-18T11:51:38.928Z,102203.69
2023-04-18T11:54:41.740Z,102212.03
2023-04-18T11:57:23.927Z,102216.22
2023-04-18T11:59:56.362Z,102214.53
2023-04-18T12:02:42.602Z,102213.88
2023-04-18T12:05:15.258Z,102222.91
2023-04-18T12:07:48.181Z,102213.50
2023-04-18T12:10:31.559Z,102211.84
2023-04-18T12:13:02.562Z,102216.03
2023-04-18T12:15:33.851Z,102216.19
2023-04-18T12:18:05.519Z,102212.31
2023-04-18T12:20:54.272Z,102210.50
2023-04-18T12:23:35.697Z,102203.47
2023-04-18T12:26:11.772Z,102206.53
2023-04-18T12:28:42.863Z,102208.88
2023-04-18T12:31:13.111Z,102204.19
2023-04-18T12:33:43.299Z,102212.88
2023-04-18T12:36:13.529Z,102203.31
2023-04-18T12:38:43.983Z,102206.50
2023-04-18T12:41:16.793Z,102203.13
2023-04-18T12:43:47.083Z,102199.47
2023-04-18T12:46:17.229Z,102199.16
2023-04-18T12:48:47.457Z,102198.53
2023-04-18T12:51:17.908Z,102197.69
2023-04-18T12:53:48.020Z,102195.63
2023-04-18T12:56:21.229Z,102193.78
2023-04-18T12:58:52.045Z,102202.00
2023-04-18T13:01:22.435Z,102192.16
2023-04-18T13:04:03.809Z,102191.03
2023-04-18T13:06:34.909Z,102183.66
2023-04-18T13:09:05.069Z,102184.19
2023-04-18T13:11:37.946Z,102186.03
2023-04-18T13:14:08.063Z,102182.66
2023-04-18T13:16:38.471Z,102173.78
2023-04-18T13:19:09.019Z,102183.59
2023-04-18T13:21:39.544Z,102183.56
2023-04-18T13:24:10.495Z,102184.50
2023-04-18T13:26:43.227Z,102181.63
2023-04-18T13:29:13.549Z,102176.47
2023-04-18T13:31:44.263Z,102171.16
2023-04-18T13:34:14.557Z,102168.22
2023-04-18T13:36:44.720Z,102173.63
2023-04-18T13:39:15.514Z,102168.94
2023-04-18T13:41:48.460Z,102166.75
2023-04-18T13:44:18.592Z,102161.22
2023-04-18T13:46:49.157Z,102153.66
2023-04-18T13:49:19.306Z,102156.53
2023-04-18T13:51:50.651Z,102162.56
2023-04-18T13:54:20.839Z,102152.69
2023-04-18T13:56:53.512Z,102160.03
2023-04-18T13:59:25.063Z,102159.03
2023-04-18T14:01:55.673Z,102150.84
2023-04-18T14:04:27.236Z,102155.66
2023-04-18T14:06:59.067Z,102149.94
2023-04-18T14:09:32.232Z,102147.25
2023-04-18T14:12:08.237Z,102154.78
2023-04-18T14:14:38.607Z,102157.28
2023-04-18T14:17:08.856Z,102150.75
2023-04-18T14:19:41.795Z,102147.41
2023-04-18T14:22:12.215Z,102152.91
2023-04-18T14:24:45.295Z,102147.88
2023-04-18T14:27:18.115Z,102145.38
2023-04-18T14:29:49.081Z,102147.16
2023-04-18T14:32:19.243Z,102151.34
2023-04-18T14:34:49.401Z,102139.78
2023-04-18T14:37:19.553Z,102135.06
2023-04-18T14:39:51.660Z,102135.72
2023-04-18T14:42:24.427Z,102128.84
2023-04-18T14:44:54.681Z,102130.00
2023-04-18T14:47:31.083Z,102135.31
2023-04-18T14:50:01.390Z,102127.28
2023-04-18T14:52:31.627Z,102127.28
2023-04-18T14:55:01.987Z,102124.59
2023-04-18T14:57:34.948Z,102132.47
2023-04-18T15:00:05.679Z,102123.44
2023-04-18T15:02:36.236Z,102127.94
2023-04-18T15:05:11.303Z,102124.88
2023-04-18T15:07:43.090Z,102119.19
2023-04-18T15:10:15.456Z,102132.44
2023-04-18T15:12:49.310Z,102124.88
2023-04-18T15:15:25.394Z,102125.03
2023-04-18T15:17:55.725Z,102125.16
2023-04-18T15:20:25.949Z,102121.38
2023-04-18T15:22:56.481Z,102118.69
2023-04-18T15:25:30.608Z,102121.53
2023-04-18T15:28:03.532Z,102118.34
2023-04-18T15:30:33.813Z,102129.03
2023-04-18T15:33:04.613Z,102126.88
2023-04-18T15:35:35.100Z,102117.88
2023-04-18T15:38:06.825Z,102121.06
2023-04-18T15:40:38.304Z,102118.38
2023-04-18T15:43:13.936Z,102121.72
2023-04-18T15:45:44.659Z,102114.63
2023-04-18T15:48:14.944Z,102115.06
2023-04-18T15:50:45.250Z,102120.91
2023-04-18T15:53:15.417Z,102116.38
2023-04-18T15:55:46.668Z,102125.94
2023-04-18T15:58:20.825Z,102115.38
2023-04-18T16:00:51.111Z,102119.84
2023-04-18T16:03:21.656Z,102124.00
2023-04-18T16:05:57.513Z,102119.28
2023-04-18T16:08:33.157Z,102122.97
2023-04-18T16:11:08.266Z,102116.56
2023-04-18T16:13:43.719Z,102131.53
2023-04-18T16:16:14.211Z,102125.47
2023-04-18T16:18:49.648Z,102124.09
2023-04-18T16:21:20.069Z,102124.25
2023-04-18T16:24:05.095Z,102126.72
2023-04-18T16:26:35.409Z,102121.84
2023-04-18T16:29:08.385Z,102127.94
2023-04-18T16:31:38.918Z,102123.97
2023-04-18T16:34:09.825Z,102133.00
2023-04-18T16:36:40.331Z,102123.44
2023-04-18T16:39:10.480Z,102128.13
2023-04-18T16:41:40.602Z,102123.56
2023-04-18T16:44:13.527Z,102127.31
2023-04-18T16:46:43.874Z,102127.09
2023-04-18T16:49:14.053Z,102128.75
2023-04-18T16:51:44.378Z,102122.72
2023-04-18T16:54:14.677Z,102126.25
2023-04-18T16:56:45.001Z,102132.41
2023-04-18T16:59:17.962Z,102131.00
2023-04-18T17:01:48.132Z,102132.00
2023-04-18T17:04:18.465Z,102133.84
2023-04-18T17:06:50.937Z,102135.50
2023-04-18T17:09:22.253Z,102135.22
2023-04-18T17:11:52.889Z,102145.81
2023-04-18T17:14:33.408Z,102135.34
2023-04-18T17:17:03.910Z,102140.31
2023-04-18T17:19:34.304Z,102142.06
2023-04-18T17:22:04.721Z,102142.06
2023-04-18T17:24:36.880Z,102143.91
2023-04-18T17:27:07.499Z,102147.91
2023-04-18T17:29:41.088Z,102143.06
2023-04-18T17:32:12.467Z,102153.03
2023-04-18T17:34:43.024Z,102140.09
2023-04-18T17:37:17.438Z,102144.88
2023-04-18T17:39:47.949Z,102150.78
2023-04-18T17:42:34.324Z,102156.84
2023-04-18T17:45:17.501Z,102151.56
2023-04-18T17:47:50.008Z,102150.97
2023-04-18T17:50:32.699Z,102149.88
2023-04-18T17:53:04.606Z,102158.16
2023-04-18T17:55:39.843Z,102152.84
2023-04-18T17:58:14.309Z,102158.44
2023-04-18T18:00:47.958Z,102160.84
2023-04-18T18:03:22.095Z,102170.25
2023-04-18T18:05:56.499Z,102162.97
2023-04-18T18:08:32.348Z,102173.91
2023-04-18T18:11:06.429Z,102169.28
2023-04-18T18:13:36.920Z,102171.78
2023-04-18T18:16:13.368Z,102171.66
2023-04-18T18:18:46.015Z,102176.97
2023-04-18T18:21:16.899Z,102179.91
2023-04-18T18:23:50.580Z,102183.44
2023-04-18T18:26:23.731Z,102184.56
2023-04-18T18:28:54.088Z,102185.53
2023-04-18T18:31:26.862Z,102189.81
2023-04-18T18:33:57.434Z,102191.63
2023-04-18T18:36:27.863Z,102189.22
2023-04-18T18:38:58.130Z,102195.94
2023-04-18T18:41:28.226Z,102193.84
2023-04-18T18:44:01.474Z,102202.38
2023-04-18T18:46:34.458Z,102197.78
2023-04-18T18:49:06.907Z,102202.38
2023-04-18T18:51:41.020Z,102205.88
2023-04-18T18:54:13.374Z,102202.78
2023-04-18T18:56:44.382Z,102206.16
2023-04-18T18:59:15.943Z,102206.16
2023-04-18T19:01:51.892Z,102212.53
2023-04-18T19:04:24.413Z,102216.56
2023-04-18T19:10:40.031Z,102228.50
2023-04-18T19:13:10.586Z,102218.63
2023-04-18T19:15:47.034Z,102218.00
2023-04-18T19:18:22.491Z,102227.66
2023-04-18T19:20:53.479Z,102222.72
2023-04-18T19:23:26.786Z,102229.41
2023-04-18T19:25:58.359Z,102227.50
2023-04-18T19:28:28.535Z,102231.84
2023-04-18T19:30:59.272Z,102227.50
2023-04-18T19:33:32.352Z,102225.69
2023-04-18T19:36:03.020Z,102220.75
2023-04-18T19:38:40.318Z,102231.78
2023-04-18T19:41:10.520Z,102217.91
2023-04-18T19:43:42.813Z,102227.31
2023-04-18T19:46:13.083Z,102223.09
2023-04-18T19:48:45.990Z,102227.25
2023-04-18T19:51:16.101Z,102222.91
2023-04-18T19:53:46.760Z,102214.09
2023-04-18T19:56:17.075Z,102210.59
2023-04-18T19:58:53.571Z,102219.78
2023-04-18T20:01:25.004Z,102215.25
2023-04-18T20:04:00.615Z,102215.50
2023-04-18T20:06:31.200Z,102214.53
2023-04-18T20:09:05.727Z,102218.66
2023-04-18T20:11:36.009Z,102213.97
2023-04-18T20:14:06.296Z,102210.00
2023-04-18T20:16:36.596Z,102213.63
2023-04-18T20:19:12.609Z,102213.28
2023-04-18T20:21:42.881Z,102211.22
2023-04-18T20:24:16.192Z,102215.31
2023-04-18T20:26:46.439Z,102215.56
2023-04-18T20:29:16.799Z,102219.44
2023-04-18T20:31:47.278Z,102211.72
2023-04-18T20:34:24.119Z,102211.59
2023-04-18T20:36:54.748Z,102209.94
2023-04-18T20:39:25.435Z,102211.34
2023-04-18T20:41:57.898Z,102210.72
2023-04-18T20:44:28.275Z,102213.59
2023-04-18T20:46:58.431Z,102207.69
2023-04-18T20:49:31.217Z,102211.31
2023-04-18T20:52:03.758Z,102215.16
2023-04-18T20:54:34.449Z,102210.09
2023-04-18T20:57:05.344Z,102209.72
2023-04-18T20:59:35.602Z,102210.53
2023-04-18T21:02:05.820Z,102201.38
2023-04-18T21:04:38.872Z,102214.97
2023-04-18T21:07:08.968Z,102215.66
2023-04-18T21:09:39.409Z,102209.84
2023-04-18T21:12:09.898Z,102209.97
2023-04-18T21:14:40.613Z,102213.47
2023-04-18T21:17:10.804Z,102209.47
2023-04-18T21:19:43.781Z,102208.28
2023-04-18T21:22:13.853Z,102219.72
2023-04-18T21:24:44.035Z,102218.63
2023-04-18T21:27:16.117Z,102211.50
2023-04-18T21:29:46.399Z,102209.22
2023-04-18T21:32:16.668Z,102214.63
2023-04-18T21:34:49.708Z,102214.50
2023-04-18T21:37:19.904Z,102213.03
2023-04-18T21:39:50.110Z,102206.28
2023-04-18T21:42:20.299Z,102211.59
2023-04-18T21:44:50.336Z,102210.63
2023-04-18T21:47:20.470Z,102212.66
2023-04-18T21:49:53.183Z,102218.91
2023-04-18T21:52:23.408Z,102218.78
2023-04-18T21:54:53.583Z,102215.53
2023-04-18T21:57:23.629Z,102213.13
2023-04-18T21:59:53.813Z,102209.75
2023-04-18T22:02:24.743Z,102204.25
2023-04-18T22:04:57.545Z,102204.47
2023-04-18T22:07:29.686Z,102203.53
2023-04-18T22:10:00.472Z,102202.97
2023-04-18T22:12:30.559Z,102195.16
2023-04-18T22:15:07.196Z,102199.81
2023-04-18T22:17:38.141Z,102198.78
2023-04-18T22:20:13.172Z,102193.41
2023-04-18T22:22:43.280Z,102191.09
2023-04-18T22:25:14.252Z,102198.94
2023-04-18T22:27:45.272Z,102192.69
2023-04-18T22:30:17.134Z,102190.16
2023-04-18T22:32:47.480Z,102188.47
2023-04-18T22:35:20.527Z,102189.19
2023-04-18T22:37:50.744Z,102181.91
2023-04-18T22:40:20.904Z,102185.94
2023-04-18T22:42:52.044Z,102171.66
2023-04-18T22:45:22.571Z,102169.75
2023-04-18T22:47:52.756Z,102162.78
2023-04-18T22:50:26.026Z,102169.00
2023-04-18T22:52:57.426Z,102158.16
2023-04-18T22:55:27.763Z,102164.28
2023-04-18T22:57:57.951Z,102163.22
2023-04-18T23:00:28.278Z,102151.03
2023-04-18T23:02:58.680Z,102159.19
2023-04-18T23:05:31.930Z,102164.16
2023-04-18T23:08:02.131Z,102156.63
2023-04-18T23:10:32.559Z,102157.88
2023-04-18T23:13:02.786Z,102150.28
2023-04-18T23:15:32.959Z,102151.13
2023-04-18T23:18:03.247Z,102148.34
2023-04-18T23:20:38.097Z,102155.34
2023-04-18T23:23:08.509Z,102152.47
2023-04-18T23:25:39.428Z,102157.63
2023-04-18T23:28:10.875Z,102156.34
2023-04-18T23:30:41.701Z,102157.38
2023-04-18T23:33:12.287Z,102155.47
2023-04-18T23:35:45.060Z,102167.50
2023-04-18T23:38:15.693Z,102158.50
2023-04-18T23:40:45.977Z,102153.09
2023-04-18T23:43:16.217Z,102157.53
2023-04-18T23:45:46.406Z,102154.78
2023-04-18T23:48:16.594Z,102150.94
2023-04-18T23:50:52.580Z,102152.75
2023-04-18T23:53:24.949Z,102162.38
2023-04-18T23:55:57.101Z,102155.28
2023-04-18T23:58:27.155Z,102150.09
